createdAt,value
2024-01-10T00:00:27.249Z,52.86
2024-01-10T00:02:54.934Z,52.99
2024-01-10T00:05:22.741Z,53.15
2024-01-10T00:07:50.560Z,53.02
2024-01-10T00:10:19.660Z,52.93
2024-01-10T00:12:47.394Z,53.00
2024-01-10T00:15:15.383Z,53.32
2024-01-10T00:17:43.114Z,52.99
2024-01-10T00:20:11.136Z,53.03
2024-01-10T00:22:39.040Z,53.10
2024-01-10T00:25:06.812Z,53.07
2024-01-10T00:27:35.882Z,53.05
2024-01-10T00:30:03.678Z,53.13
2024-01-10T00:32:31.411Z,53.04
2024-01-10T00:34:59.181Z,53.06
2024-01-10T00:37:26.842Z,53.22
2024-01-10T00:39:54.541Z,53.27
2024-01-10T00:42:22.198Z,53.27
2024-01-10T00:44:51.264Z,53.12
2024-01-10T00:47:18.958Z,53.25
2024-01-10T00:49:46.751Z,53.29
2024-01-10T00:52:14.472Z,53.39
2024-01-10T00:54:42.144Z,53.33
2024-01-10T00:57:09.792Z,53.19
2024-01-10T00:59:37.551Z,53.24
2024-01-10T01:02:06.777Z,53.27
2024-01-10T01:04:34.647Z,53.50
2024-01-10T01:07:02.328Z,53.37
2024-01-10T01:09:30.037Z,53.23
2024-01-10T01:11:57.710Z,53.37
2024-01-10T01:14:25.446Z,53.33
2024-01-10T01:16:53.202Z,53.40
2024-01-10T01:19:22.297Z,53.84
2024-01-10T01:21:49.993Z,53.38
2024-01-10T01:24:17.690Z,53.29
2024-01-10T01:26:45.346Z,53.61
2024-01-10T01:29:13.189Z,53.27
2024-01-10T01:31:40.926Z,53.54
2024-01-10T01:34:08.707Z,53.14
2024-01-10T01:36:37.732Z,53.40
2024-01-10T01:39:05.677Z,53.49
2024-01-10T01:41:33.319Z,53.53
2024-01-10T01:44:01.004Z,53.51
2024-01-10T01:46:30.272Z,53.49
2024-01-10T01:48:58.411Z,53.55
2024-01-10T01:51:27.778Z,53.50
2024-01-10T01:53:57.859Z,53.66
2024-01-10T01:56:25.711Z,53.45
2024-01-10T01:58:54.040Z,53.52
2024-01-10T02:01:22.658Z,53.76
2024-01-10T02:03:50.542Z,53.69
2024-01-10T02:06:18.390Z,53.61
2024-01-10T02:08:46.349Z,53.29
2024-01-10T02:11:15.640Z,53.56
2024-01-10T02:13:43.523Z,53.62
2024-01-10T02:16:11.554Z,53.70
2024-01-10T02:18:40.214Z,53.79
2024-01-10T02:21:07.988Z,53.55
2024-01-10T02:23:35.660Z,53.65
2024-01-10T02:26:05.010Z,53.79
2024-01-10T02:28:32.731Z,53.75
2024-01-10T02:31:01.252Z,53.77
2024-01-10T02:33:29.431Z,53.48
2024-01-10T02:35:57.149Z,53.72
2024-01-10T02:38:25.154Z,53.59
2024-01-10T02:40:52.944Z,53.65
2024-01-10T02:43:21.963Z,53.67
2024-01-10T02:45:49.649Z,53.97
2024-01-10T02:48:17.473Z,53.62
2024-01-10T02:50:45.346Z,53.62
2024-01-10T02:53:13.111Z,53.51
2024-01-10T02:55:41.285Z,53.78
2024-01-10T02:58:08.946Z,53.79
2024-01-10T03:00:38.837Z,53.70
2024-01-10T03:03:07.057Z,53.67
2024-01-10T03:05:34.746Z,53.59
2024-01-10T03:08:03.548Z,54.11
2024-01-10T03:10:31.333Z,53.81
2024-01-10T03:12:59.033Z,53.90
2024-01-10T03:15:26.795Z,53.99
2024-01-10T03:17:55.855Z,53.97
2024-01-10T03:20:23.662Z,53.76
2024-01-10T03:22:51.394Z,53.88
2024-01-10T03:25:19.130Z,53.86
2024-01-10T03:27:46.758Z,54.13
2024-01-10T03:30:14.877Z,53.95
2024-01-10T03:32:43.181Z,54.19
2024-01-10T03:35:12.507Z,53.91
2024-01-10T03:37:40.264Z,53.54
2024-01-10T03:40:09.220Z,53.71
2024-01-10T03:42:36.925Z,53.88
2024-01-10T03:45:05.886Z,53.78
2024-01-10T03:47:33.666Z,53.71
2024-01-10T03:50:01.587Z,53.53
2024-01-10T03:52:30.660Z,53.92
2024-01-10T03:54:58.796Z,53.83
2024-01-10T03:57:26.500Z,54.03
2024-01-10T03:59:54.149Z,54.02
2024-01-10T04:02:21.902Z,53.97
2024-01-10T04:04:49.673Z,54.02
2024-01-10T04:07:17.357Z,54.08
2024-01-10T04:09:46.400Z,54.02
2024-01-10T04:12:14.106Z,54.00
2024-01-10T04:14:41.791Z,54.27
2024-01-10T04:17:10.327Z,54.04
2024-01-10T04:19:38.150Z,54.08
2024-01-10T04:22:06.072Z,53.93
2024-01-10T04:24:33.748Z,53.69
2024-01-10T04:27:02.729Z,53.92
2024-01-10T04:29:30.338Z,54.12
2024-01-10T04:31:58.069Z,54.08
2024-01-10T04:34:25.978Z,54.13
2024-01-10T04:36:53.659Z,54.28
2024-01-10T04:39:21.358Z,54.20
2024-01-10T04:41:49.055Z,54.02
2024-01-10T04:44:18.114Z,54.17
2024-01-10T04:46:45.853Z,54.09
2024-01-10T04:49:14.105Z,54.04
2024-01-10T04:51:41.828Z,54.25
2024-01-10T04:54:10.009Z,54.12
2024-01-10T04:56:37.898Z,54.24
2024-01-10T04:59:05.625Z,54.08
2024-01-10T05:01:35.041Z,54.05
2024-01-10T05:04:02.732Z,53.88
2024-01-10T05:06:30.456Z,54.02
2024-01-10T05:08:59.207Z,54.26
2024-01-10T05:11:27.794Z,54.12
2024-01-10T05:13:55.634Z,54.10
2024-01-10T05:16:23.374Z,54.13
2024-01-10T05:18:52.423Z,54.12
2024-01-10T05:21:20.368Z,54.30
2024-01-10T05:23:48.055Z,53.91
2024-01-10T05:26:15.736Z,54.15
2024-01-10T05:28:43.458Z,54.28
2024-01-10T05:31:11.277Z,54.15
2024-01-10T05:33:39.092Z,54.15
2024-01-10T05:36:09.059Z,54.17
2024-01-10T05:38:36.788Z,54.25
2024-01-10T05:41:04.499Z,54.20
2024-01-10T05:43:32.699Z,54.35
2024-01-10T05:46:01.475Z,54.23
2024-01-10T05:48:29.318Z,54.14
2024-01-10T05:50:57.141Z,54.34
2024-01-10T05:53:27.142Z,54.20
2024-01-10T05:55:55.103Z,54.36
2024-01-10T05:58:22.800Z,54.23
2024-01-10T06:00:50.545Z,54.24
2024-01-10T06:03:18.233Z,54.18
2024-01-10T06:05:46.066Z,54.03
2024-01-10T06:08:15.215Z,54.27
2024-01-10T06:10:44.278Z,53.99
2024-01-10T06:13:11.936Z,54.36
2024-01-10T06:15:41.422Z,54.42
2024-01-10T06:18:09.201Z,54.43
2024-01-10T06:20:39.139Z,54.20
2024-01-10T06:23:07.229Z,54.35
2024-01-10T06:25:34.923Z,54.58
2024-01-10T06:28:04.358Z,54.31
2024-01-10T06:30:32.412Z,54.30
2024-01-10T06:33:01.210Z,54.14
2024-01-10T06:35:28.982Z,54.23
2024-01-10T06:37:56.747Z,54.44
2024-01-10T06:40:24.427Z,54.11
2024-01-10T06:42:52.089Z,54.50
2024-01-10T06:45:21.267Z,54.20
2024-01-10T06:47:49.018Z,54.20
2024-01-10T06:50:17.007Z,54.38
2024-01-10T06:52:44.726Z,54.20
2024-01-10T06:55:12.556Z,54.49
2024-01-10T06:57:40.211Z,54.22
2024-01-10T07:00:12.372Z,54.18
2024-01-10T07:02:42.096Z,54.68
2024-01-10T07:05:10.504Z,54.29
2024-01-10T07:07:38.770Z,54.42
2024-01-10T07:10:07.235Z,54.16
2024-01-10T07:12:35.367Z,54.36
2024-01-10T07:15:04.194Z,54.11
2024-01-10T07:17:32.035Z,54.53
2024-01-10T07:20:01.262Z,54.44
2024-01-10T07:22:29.067Z,54.66
2024-01-10T07:24:58.119Z,54.60
2024-01-10T07:27:25.819Z,54.32
2024-01-10T07:29:53.758Z,54.42
2024-01-10T07:32:21.560Z,54.47
2024-01-10T07:34:49.482Z,54.27
2024-01-10T07:37:21.889Z,54.60
2024-01-10T07:39:51.584Z,54.47
2024-01-10T07:42:19.593Z,54.37
2024-01-10T07:44:49.065Z,54.46
2024-01-10T07:47:17.628Z,54.44
2024-01-10T07:49:45.551Z,54.61
2024-01-10T07:52:14.549Z,54.61
2024-01-10T07:54:43.698Z,54.44
2024-01-10T07:57:12.189Z,54.37
2024-01-10T07:59:39.947Z,54.51
2024-01-10T08:02:08.437Z,54.35
2024-01-10T08:04:36.425Z,54.52
2024-01-10T08:07:04.535Z,54.22
2024-01-10T08:09:32.317Z,54.31
2024-01-10T08:12:01.486Z,54.27
2024-01-10T08:14:29.255Z,54.30
2024-01-10T08:16:59.417Z,54.16
2024-01-10T08:19:27.354Z,54.38
2024-01-10T08:21:55.298Z,54.59
2024-01-10T08:24:23.071Z,54.35
2024-01-10T08:26:52.961Z,54.61
2024-01-10T08:29:22.265Z,54.27
2024-01-10T08:31:50.524Z,54.74
2024-01-10T08:34:19.408Z,54.44
2024-01-10T08:36:48.451Z,54.28
2024-01-10T08:39:16.194Z,54.03
2024-01-10T08:41:45.412Z,54.50
2024-01-10T08:44:13.298Z,54.28
2024-01-10T08:46:42.375Z,54.58
2024-01-10T08:49:10.994Z,54.26
2024-01-10T08:51:38.708Z,54.31
2024-01-10T08:54:06.687Z,54.54
2024-01-10T08:56:35.691Z,54.09
2024-01-10T08:59:05.357Z,54.21
2024-01-10T09:01:33.725Z,54.26
2024-01-10T09:04:02.752Z,54.40
2024-01-10T09:06:32.315Z,54.32
2024-01-10T09:08:59.977Z,54.54
2024-01-10T09:11:27.847Z,54.51
2024-01-10T09:13:55.541Z,54.27
2024-01-10T09:16:23.237Z,54.40
2024-01-10T09:18:51.823Z,54.37
2024-01-10T09:21:22.877Z,54.44
2024-01-10T09:23:52.194Z,54.14
2024-01-10T09:26:20.204Z,54.37
2024-01-10T09:28:48.027Z,54.35
2024-01-10T09:31:15.847Z,54.32
2024-01-10T09:33:44.468Z,54.38
2024-01-10T09:36:12.242Z,54.48
2024-01-10T09:38:41.304Z,54.22
2024-01-10T09:41:09.038Z,54.30
2024-01-10T09:43:36.788Z,54.29
2024-01-10T09:46:05.214Z,54.07
2024-01-10T09:48:33.864Z,54.39
2024-01-10T09:51:01.872Z,54.46
2024-01-10T09:53:31.313Z,54.48
2024-01-10T09:56:02.311Z,54.58
2024-01-10T09:58:30.073Z,54.78
2024-01-10T10:00:57.785Z,54.46
2024-01-10T10:03:25.752Z,54.72
2024-01-10T10:05:53.596Z,54.74
2024-01-10T10:08:23.704Z,54.71
2024-01-10T10:10:52.249Z,54.48
2024-01-10T10:13:31.390Z,54.70
2024-01-10T10:16:00.762Z,54.59
2024-01-10T10:18:28.925Z,54.76
2024-01-10T10:21:10.924Z,54.81
2024-01-10T10:23:39.242Z,54.69
2024-01-10T10:26:15.617Z,54.78
2024-01-10T10:28:44.793Z,54.87
2024-01-10T10:31:12.805Z,54.81
2024-01-10T10:33:41.429Z,54.51
2024-01-10T10:36:09.597Z,54.93
2024-01-10T10:38:38.634Z,54.66
2024-01-10T10:41:11.557Z,54.93
2024-01-10T10:43:40.797Z,54.93
2024-01-10T10:46:13.436Z,54.95
2024-01-10T10:48:42.101Z,55.32
2024-01-10T10:51:17.704Z,54.97
2024-01-10T10:53:47.615Z,54.62
2024-01-10T10:56:15.325Z,54.85
2024-01-10T10:58:45.098Z,54.79
2024-01-10T11:01:16.397Z,54.94
2024-01-10T11:03:45.954Z,54.96
2024-01-10T11:06:13.945Z,54.69
2024-01-10T11:08:47.812Z,55.01
2024-01-10T11:11:27.552Z,54.75
2024-01-10T11:14:12.010Z,54.78
2024-01-10T11:16:58.007Z,54.90
2024-01-10T11:19:56.650Z,54.77
2024-01-10T11:22:42.698Z,54.93
2024-01-10T11:25:10.965Z,54.77
2024-01-10T11:27:39.368Z,54.85
2024-01-10T11:30:08.488Z,55.25
2024-01-10T11:32:37.551Z,54.96
2024-01-10T11:35:08.866Z,54.87
2024-01-10T11:37:44.514Z,55.13
2024-01-10T11:40:13.722Z,55.25
2024-01-10T11:42:44.223Z,55.16
2024-01-10T11:45:11.978Z,55.26
2024-01-10T11:47:42.496Z,54.98
2024-01-10T11:50:10.877Z,55.10
2024-01-10T11:52:39.444Z,54.92
2024-01-10T11:55:09.523Z,55.37
2024-01-10T11:57:38.348Z,55.29
2024-01-10T12:00:09.067Z,55.14
2024-01-10T12:02:37.865Z,55.63
2024-01-10T12:05:10.015Z,55.21
2024-01-10T12:07:38.266Z,55.21
2024-01-10T12:10:07.073Z,55.21
2024-01-10T12:12:35.119Z,55.22
2024-01-10T12:15:02.852Z,55.36
2024-01-10T12:17:31.122Z,55.41
2024-01-10T12:19:58.941Z,55.17
2024-01-10T12:22:28.033Z,55.23
2024-01-10T12:24:55.685Z,55.56
2024-01-10T12:27:24.133Z,55.27
2024-01-10T12:29:53.452Z,55.26
2024-01-10T12:32:24.599Z,55.33
2024-01-10T12:34:57.263Z,55.61
2024-01-10T12:37:24.973Z,55.28
2024-01-10T12:39:54.050Z,55.40
2024-01-10T12:42:21.746Z,55.47
2024-01-10T12:44:49.936Z,55.36
2024-01-10T12:47:21.960Z,55.32
2024-01-10T12:49:49.890Z,55.33
2024-01-10T12:52:20.458Z,55.45
2024-01-10T12:54:50.089Z,55.34
2024-01-10T12:57:19.165Z,55.14
2024-01-10T12:59:46.920Z,55.40
2024-01-10T13:02:14.690Z,55.17
2024-01-10T13:04:42.557Z,55.20
2024-01-10T13:07:10.231Z,55.43
2024-01-10T13:09:38.642Z,55.46
2024-01-10T13:12:07.243Z,55.37
2024-01-10T13:14:36.551Z,55.33
2024-01-10T13:17:05.568Z,55.29
2024-01-10T13:19:33.680Z,55.44
2024-01-10T13:22:02.301Z,55.55
2024-01-10T13:24:31.390Z,55.40
2024-01-10T13:26:59.301Z,55.54
2024-01-10T13:29:27.210Z,55.68
2024-01-10T13:31:56.317Z,55.62
2024-01-10T13:34:24.075Z,55.61
2024-01-10T13:36:51.825Z,55.55
2024-01-10T13:39:20.407Z,55.36
2024-01-10T13:41:48.192Z,55.43
2024-01-10T13:44:15.860Z,55.38
2024-01-10T13:46:43.682Z,55.43
2024-01-10T13:49:12.874Z,55.54
2024-01-10T13:51:41.917Z,55.89
2024-01-10T13:54:09.952Z,55.51
2024-01-10T13:56:40.455Z,55.59
2024-01-10T13:59:08.222Z,55.53
2024-01-10T14:01:35.902Z,55.61
2024-01-10T14:04:03.573Z,55.89
2024-01-10T14:06:32.678Z,55.63
2024-01-10T14:09:00.391Z,55.71
2024-01-10T14:11:28.721Z,55.73
2024-01-10T14:13:56.516Z,55.95
2024-01-10T14:16:24.241Z,55.68
2024-01-10T14:18:52.196Z,55.61
2024-01-10T14:21:20.893Z,55.71
2024-01-10T14:23:50.331Z,56.29
2024-01-10T14:26:18.154Z,55.89
2024-01-10T14:28:46.024Z,55.71
2024-01-10T14:31:22.732Z,55.63
2024-01-10T14:33:58.000Z,55.57
2024-01-10T14:36:25.852Z,55.38
2024-01-10T14:38:56.403Z,55.82
2024-01-10T14:41:24.242Z,55.54
2024-01-10T14:43:52.019Z,55.60
2024-01-10T14:46:19.719Z,55.65
2024-01-10T14:48:48.272Z,55.65
2024-01-10T14:51:16.502Z,55.53
2024-01-10T14:53:44.272Z,55.36
2024-01-10T14:56:13.477Z,55.84
2024-01-10T14:58:41.288Z,55.43
2024-01-10T15:01:09.726Z,55.62
2024-01-10T15:03:37.581Z,55.47
2024-01-10T15:06:06.313Z,55.47
2024-01-10T15:08:35.034Z,55.80
2024-01-10T15:11:03.471Z,55.40
2024-01-10T15:13:33.797Z,55.35
2024-01-10T15:16:02.369Z,55.24
2024-01-10T15:18:30.103Z,55.32
2024-01-10T15:20:57.977Z,55.27
2024-01-10T15:23:25.721Z,55.08
2024-01-10T15:25:53.464Z,55.05
2024-01-10T15:28:21.193Z,55.13
2024-01-10T15:30:50.265Z,55.21
2024-01-10T15:33:19.024Z,54.90
2024-01-10T15:35:47.589Z,54.83
2024-01-10T15:38:15.324Z,55.02
2024-01-10T15:40:43.870Z,54.76
2024-01-10T15:43:11.635Z,54.88
2024-01-10T15:45:39.512Z,54.75
2024-01-10T15:48:08.688Z,54.75
2024-01-10T15:50:36.527Z,54.91
2024-01-10T15:53:04.599Z,54.84
2024-01-10T15:55:33.288Z,54.69
2024-01-10T15:58:01.039Z,54.77
2024-01-10T16:00:28.713Z,54.65
2024-01-10T16:02:57.049Z,54.75
2024-01-10T16:05:26.475Z,54.64
2024-01-10T16:07:54.220Z,54.90
2024-01-10T16:10:21.914Z,54.76
2024-01-10T16:12:49.617Z,54.85
2024-01-10T16:15:18.197Z,54.96
2024-01-10T16:17:46.243Z,54.87
2024-01-10T16:20:14.272Z,55.00
2024-01-10T16:22:43.323Z,54.91
2024-01-10T16:25:11.177Z,55.05
2024-01-10T16:27:38.869Z,55.00
2024-01-10T16:30:07.788Z,55.40
2024-01-10T16:32:35.597Z,55.31
2024-01-10T16:35:03.991Z,55.45
2024-01-10T16:37:32.015Z,55.34
2024-01-10T16:40:01.067Z,55.53
2024-01-10T16:42:30.637Z,55.37
2024-01-10T16:44:58.426Z,55.52
2024-01-10T16:47:26.126Z,55.75
2024-01-10T16:49:53.865Z,55.59
2024-01-10T16:52:22.099Z,55.55
2024-01-10T16:54:49.814Z,55.66
2024-01-10T16:57:19.044Z,55.83
2024-01-10T16:59:46.712Z,55.51
2024-01-10T17:02:14.578Z,55.64
2024-01-10T17:04:42.339Z,55.52
2024-01-10T17:07:09.938Z,55.68
2024-01-10T17:09:40.521Z,55.62
2024-01-10T17:12:09.083Z,55.55
2024-01-10T17:14:38.250Z,55.83
2024-01-10T17:17:08.980Z,55.67
2024-01-10T17:19:36.656Z,55.59
2024-01-10T17:22:04.467Z,55.83
2024-01-10T17:24:32.183Z,55.63
2024-01-10T17:26:59.837Z,55.92
2024-01-10T17:29:27.586Z,55.54
2024-01-10T17:31:56.684Z,55.79
2024-01-10T17:34:24.389Z,55.67
2024-01-10T17:36:52.198Z,55.78
2024-01-10T17:39:21.175Z,55.90
2024-01-10T17:41:48.940Z,55.84
2024-01-10T17:44:17.355Z,55.63
2024-01-10T17:46:45.684Z,55.67
2024-01-10T17:49:14.830Z,55.79
2024-01-10T17:51:42.521Z,55.97
2024-01-10T17:54:10.229Z,55.82
2024-01-10T17:56:39.318Z,57.60
2024-01-10T17:59:07.049Z,58.17
2024-01-10T18:01:35.003Z,57.81
2024-01-10T18:04:07.845Z,57.85
2024-01-10T18:06:43.148Z,58.22
2024-01-10T18:09:10.873Z,58.04
2024-01-10T18:11:38.530Z,58.16
2024-01-10T18:14:06.249Z,57.79
2024-01-10T18:16:33.916Z,57.95
2024-01-10T18:19:02.167Z,58.20
2024-01-10T18:21:30.022Z,58.43
2024-01-10T18:23:59.242Z,58.79
2024-01-10T18:26:28.028Z,58.87
2024-01-10T18:28:55.851Z,58.85
2024-01-10T18:31:23.607Z,59.07
2024-01-10T18:33:51.430Z,58.92
2024-01-10T18:36:19.176Z,59.43
2024-01-10T18:38:47.456Z,59.07
2024-01-10T18:41:16.621Z,58.92
2024-01-10T18:43:44.334Z,59.35
2024-01-10T18:46:12.428Z,58.71
2024-01-10T18:48:40.562Z,59.07
2024-01-10T18:51:08.308Z,59.21
2024-01-10T18:53:36.577Z,59.21
2024-01-10T18:56:05.416Z,59.25
2024-01-10T18:58:34.593Z,58.64
2024-01-10T19:01:02.342Z,58.75
2024-01-10T19:03:30.060Z,58.72
2024-01-10T19:05:58.013Z,59.17
2024-01-10T19:08:27.339Z,59.16
2024-01-10T19:10:55.433Z,59.20
2024-01-10T19:13:23.191Z,60.02
2024-01-10T19:15:52.422Z,59.42
2024-01-10T19:18:20.095Z,60.51
2024-01-10T19:20:48.210Z,59.84
2024-01-10T19:23:15.953Z,59.82
2024-01-10T19:25:43.743Z,60.31
2024-01-10T19:28:11.547Z,59.99
2024-01-10T19:30:39.215Z,59.76
2024-01-10T19:33:08.263Z,60.02
2024-01-10T19:35:36.041Z,60.34
2024-01-10T19:38:03.939Z,60.55
2024-01-10T19:40:31.754Z,59.98
2024-01-10T19:42:59.476Z,60.27
2024-01-10T19:45:28.821Z,60.32
2024-01-10T19:47:56.577Z,60.07
2024-01-10T19:50:26.034Z,60.28
2024-01-10T19:52:54.157Z,60.22
2024-01-10T19:55:21.823Z,60.16
2024-01-10T19:57:49.577Z,59.91
2024-01-10T20:00:17.916Z,59.97
2024-01-10T20:02:47.204Z,59.76
2024-01-10T20:05:15.053Z,59.38
2024-01-10T20:07:44.143Z,59.03
2024-01-10T20:10:12.962Z,59.08
2024-01-10T20:12:40.690Z,58.70
2024-01-10T20:15:09.294Z,59.01
2024-01-10T20:17:37.174Z,58.47
2024-01-10T20:20:06.361Z,58.72
2024-01-10T20:22:34.137Z,58.61
2024-01-10T20:25:03.140Z,58.23
2024-01-10T20:27:30.833Z,58.22
2024-01-10T20:29:58.514Z,58.17
2024-01-10T20:32:26.256Z,57.93
2024-01-10T20:34:55.967Z,57.98
2024-01-10T20:37:24.127Z,57.89
2024-01-10T20:39:51.792Z,57.89
2024-01-10T20:42:21.120Z,58.00
2024-01-10T20:44:49.982Z,57.75
2024-01-10T20:47:19.071Z,57.41
2024-01-10T20:49:46.981Z,57.43
2024-01-10T20:52:15.676Z,57.48
2024-01-10T20:54:43.472Z,57.38
2024-01-10T20:57:11.109Z,57.56
2024-01-10T20:59:40.141Z,57.74
2024-01-10T21:02:07.868Z,57.43
2024-01-10T21:04:35.629Z,57.28
2024-01-10T21:07:12.947Z,57.36
2024-01-10T21:09:43.463Z,57.46
2024-01-10T21:12:12.470Z,57.76
2024-01-10T21:14:43.371Z,57.39
2024-01-10T21:17:13.720Z,57.57
2024-01-10T21:19:43.445Z,57.52
2024-01-10T21:22:13.824Z,57.28
2024-01-10T21:24:41.698Z,57.43
2024-01-10T21:27:09.694Z,57.53
2024-01-10T21:29:38.108Z,57.66
2024-01-10T21:32:07.436Z,57.62
2024-01-10T21:34:36.760Z,57.70
2024-01-10T21:37:04.957Z,57.37
2024-01-10T21:39:32.643Z,57.40
2024-01-10T21:42:00.422Z,57.49
2024-01-10T21:44:28.782Z,57.53
2024-01-10T21:46:56.659Z,57.43
2024-01-10T21:49:25.716Z,57.40
2024-01-10T21:51:53.723Z,57.38
2024-01-10T21:54:21.415Z,57.31
2024-01-10T21:56:49.140Z,57.33
2024-01-10T21:59:17.321Z,57.51
2024-01-10T22:01:45.036Z,57.38
2024-01-10T22:04:12.779Z,57.42
2024-01-10T22:06:41.938Z,57.35
2024-01-10T22:09:17.587Z,57.49
2024-01-10T22:11:45.359Z,57.35
2024-01-10T22:14:13.463Z,57.37
2024-01-10T22:16:41.229Z,57.49
2024-01-10T22:19:08.971Z,57.62
2024-01-10T22:21:36.855Z,57.23
2024-01-10T22:24:04.649Z,57.85
2024-01-10T22:26:33.928Z,57.45
2024-01-10T22:29:01.722Z,57.72
2024-01-10T22:31:29.496Z,57.49
2024-01-10T22:33:57.425Z,57.25
2024-01-10T22:36:25.140Z,57.56
2024-01-10T22:38:52.896Z,57.54
2024-01-10T22:41:20.644Z,57.43
2024-01-10T22:43:49.638Z,57.62
2024-01-10T22:46:17.990Z,57.77
2024-01-10T22:48:45.863Z,57.64
2024-01-10T22:51:13.758Z,57.66
2024-01-10T22:53:41.500Z,57.70
2024-01-10T22:56:09.310Z,57.75
2024-01-10T22:58:36.971Z,57.66
2024-01-10T23:01:06.354Z,57.93
2024-01-10T23:03:39.349Z,57.96
2024-01-10T23:06:08.182Z,57.77
2024-01-10T23:08:37.224Z,57.95
2024-01-10T23:11:05.280Z,57.50
2024-01-10T23:13:32.954Z,57.74
2024-01-10T23:16:00.937Z,57.71
2024-01-10T23:18:30.104Z,57.86
2024-01-10T23:20:57.835Z,57.88
2024-01-10T23:23:25.554Z,57.92
2024-01-10T23:25:53.383Z,57.91
2024-01-10T23:28:21.053Z,57.87
2024-01-10T23:30:48.750Z,57.95
2024-01-10T23:33:16.561Z,58.06
2024-01-10T23:35:49.129Z,57.78
2024-01-10T23:38:17.790Z,57.66
2024-01-10T23:40:45.929Z,58.04
2024-01-10T23:43:23.796Z,58.01
2024-01-10T23:45:55.676Z,57.92
2024-01-10T23:48:24.191Z,57.89
2024-01-10T23:50:53.375Z,58.01
2024-01-10T23:53:21.497Z,57.99
2024-01-10T23:55:49.206Z,58.02
2024-01-10T23:58:16.885Z,57.99
